createdAt,value
2024-03-12T00:01:56.574Z,28.30
2024-03-12T00:06:34.511Z,27.77
2024-03-12T00:11:12.588Z,30.50
2024-03-12T00:15:50.604Z,31.67
2024-03-12T00:20:37.519Z,29.13
2024-03-12T00:25:16.617Z,28.90
2024-03-12T00:29:54.496Z,31.30
2024-03-12T00:34:33.551Z,30.40
2024-03-12T00:39:18.463Z,36.93
2024-03-12T00:43:59.562Z,34.97
2024-03-12T00:48:31.446Z,38.93
2024-03-12T00:53:03.571Z,38.80
2024-03-12T00:57:46.582Z,36.57
2024-03-12T01:02:27.610Z,37.30
2024-03-12T01:07:06.594Z,39.23
2024-03-12T01:11:45.471Z,36.83
2024-03-12T01:16:26.474Z,34.87
2024-03-12T01:21:05.487Z,35.63
2024-03-12T01:25:44.497Z,37.17
2024-03-12T01:30:24.512Z,40.27
2024-03-12T01:35:06.515Z,37.67
2024-03-12T01:39:46.514Z,38.63
2024-03-12T01:44:24.565Z,37.20
2024-03-12T01:49:03.486Z,37.23
2024-03-12T01:53:46.722Z,33.90
2024-03-12T01:58:25.497Z,34.60
2024-03-12T02:03:04.474Z,37.43
2024-03-12T02:07:43.496Z,37.67
2024-03-12T02:12:18.499Z,37.77
2024-03-12T02:16:58.490Z,37.80
2024-03-12T02:21:37.551Z,39.67
2024-03-12T02:26:19.532Z,38.07
2024-03-12T02:30:57.585Z,40.27
2024-03-12T02:35:36.095Z,37.43
2024-03-12T02:40:17.360Z,39.87
2024-03-12T02:44:59.466Z,40.33
2024-03-12T02:49:37.472Z,41.47
2024-03-12T02:54:15.526Z,39.67
2024-03-12T02:58:53.474Z,41.00
2024-03-12T03:03:35.545Z,38.47
2024-03-12T03:08:13.514Z,37.37
2024-03-12T03:12:51.643Z,40.40
2024-03-12T03:17:30.514Z,44.90
2024-03-12T03:22:12.599Z,45.53
2024-03-12T03:26:50.471Z,45.60
2024-03-12T03:31:29.527Z,45.93
2024-03-12T03:36:09.512Z,44.20
2024-03-12T03:40:50.513Z,44.40
2024-03-12T03:45:29.463Z,43.87
2024-03-12T03:50:07.484Z,47.90
2024-03-12T03:54:45.470Z,50.67
2024-03-12T03:59:27.466Z,56.00
2024-03-12T04:04:06.617Z,55.40
2024-03-12T04:08:44.515Z,54.00
2024-03-12T04:13:23.481Z,56.63
2024-03-12T04:18:06.066Z,65.37
2024-03-12T04:22:44.605Z,51.97
2024-03-12T04:27:23.476Z,65.00
2024-03-12T04:32:03.585Z,70.50
2024-03-12T04:36:44.494Z,65.77
2024-03-12T04:41:22.468Z,58.57
2024-03-12T04:46:00.500Z,60.17
2024-03-12T04:50:38.520Z,59.30
2024-03-12T04:55:20.491Z,62.60
2024-03-12T04:59:58.460Z,66.00
2024-03-12T05:04:36.590Z,62.60
2024-03-12T05:09:14.563Z,61.20
2024-03-12T05:13:56.697Z,61.93
2024-03-12T05:18:35.520Z,55.50
2024-03-12T05:23:18.465Z,52.00
2024-03-12T05:27:56.476Z,57.67
2024-03-12T05:32:37.619Z,58.37
2024-03-12T05:37:23.497Z,53.17
2024-03-12T05:42:14.460Z,52.97
2024-03-12T05:47:12.470Z,56.23
2024-03-12T05:51:47.481Z,51.00
2024-03-12T05:56:27.538Z,53.83
2024-03-12T06:01:06.541Z,51.43
2024-03-12T06:05:44.551Z,55.87
2024-03-12T06:10:27.487Z,56.80
2024-03-12T06:15:06.435Z,55.60
2024-03-12T06:19:44.588Z,56.63
2024-03-12T06:24:24.749Z,56.97
2024-03-12T06:29:06.441Z,54.57
2024-03-12T06:33:47.474Z,55.30
2024-03-12T06:38:28.460Z,51.53
2024-03-12T06:43:00.466Z,52.50
2024-03-12T06:47:46.487Z,51.67
2024-03-12T06:52:24.457Z,45.80
2024-03-12T06:57:03.427Z,47.90
2024-03-12T07:01:48.757Z,45.90
2024-03-12T07:06:32.427Z,44.67
2024-03-12T07:11:11.460Z,43.53
2024-03-12T07:15:56.511Z,45.20
2024-03-12T07:20:37.416Z,43.13
2024-03-12T07:25:18.462Z,39.50
2024-03-12T07:29:51.244Z,38.63
2024-03-12T07:34:23.495Z,35.13
2024-03-12T07:39:04.626Z,31.67
2024-03-12T07:43:45.413Z,28.37
2024-03-12T07:48:24.490Z,25.97
2024-03-12T07:52:56.483Z,27.10
2024-03-12T07:57:38.427Z,25.00
2024-03-12T08:02:24.433Z,21.40
2024-03-12T08:07:06.589Z,22.23
2024-03-12T08:11:46.498Z,23.27
2024-03-12T08:16:25.412Z,22.23
2024-03-12T08:21:06.443Z,21.90
2024-03-12T08:25:55.085Z,23.90
2024-03-12T08:30:37.462Z,23.87
2024-03-12T08:35:16.416Z,25.23
2024-03-12T08:39:57.412Z,24.37
2024-03-12T08:44:36.411Z,24.30
2024-03-12T08:49:18.709Z,24.57
2024-03-12T08:53:57.405Z,22.17
2024-03-12T08:58:40.650Z,23.57
2024-03-12T09:03:19.518Z,22.17
2024-03-12T09:07:57.478Z,21.20
2024-03-12T09:12:38.418Z,22.53
2024-03-12T09:17:20.448Z,20.73
2024-03-12T09:21:53.414Z,20.10
2024-03-12T09:26:31.514Z,18.20
2024-03-12T09:31:09.492Z,19.47
2024-03-12T09:35:51.455Z,20.13
2024-03-12T09:40:29.426Z,18.23
2024-03-12T09:45:10.690Z,18.37
2024-03-12T09:49:51.404Z,18.40
2024-03-12T09:54:35.465Z,17.43
2024-03-12T09:59:15.636Z,15.60
2024-03-12T10:03:54.506Z,16.23
2024-03-12T10:08:36.408Z,15.20
2024-03-12T10:13:22.399Z,16.03
2024-03-12T10:18:15.400Z,15.73
2024-03-12T10:22:54.404Z,17.07
2024-03-12T10:27:36.429Z,17.70
2024-03-12T10:32:36.726Z,17.37
2024-03-12T10:37:15.592Z,17.90
2024-03-12T10:41:53.438Z,18.00
2024-03-12T10:46:32.396Z,19.03
2024-03-12T10:51:14.704Z,18.87
2024-03-12T10:55:48.395Z,20.50
2024-03-12T11:00:28.406Z,18.67
2024-03-12T11:05:07.473Z,18.30
2024-03-12T11:09:49.438Z,19.03
2024-03-12T11:14:28.396Z,19.57
2024-03-12T11:19:08.418Z,22.43
2024-03-12T11:23:47.716Z,21.77
2024-03-12T11:28:33.436Z,20.67
2024-03-12T11:33:14.395Z,21.73
2024-03-12T11:37:54.392Z,23.03
2024-03-12T11:42:32.413Z,20.27
2024-03-12T11:47:14.377Z,19.83
2024-03-12T11:52:10.442Z,19.17
2024-03-12T11:56:48.390Z,20.23
2024-03-12T12:01:31.544Z,19.43
2024-03-12T12:06:14.386Z,19.37
2024-03-12T12:10:52.428Z,19.03
2024-03-12T12:15:30.535Z,20.30
2024-03-12T12:20:26.388Z,17.30
2024-03-12T12:25:01.405Z,17.20
2024-03-12T12:29:41.407Z,20.03
2024-03-12T12:34:20.370Z,20.57
2024-03-12T12:39:03.510Z,20.23
2024-03-12T12:43:50.387Z,20.73
2024-03-12T12:48:30.380Z,22.40
2024-03-12T12:53:13.387Z,23.90
2024-03-12T12:57:52.423Z,21.87
2024-03-12T13:02:34.390Z,23.30
2024-03-12T13:07:12.456Z,22.13
2024-03-12T13:11:51.383Z,23.10
2024-03-12T13:16:32.376Z,23.43
2024-03-12T13:21:15.411Z,22.77
2024-03-12T13:25:54.408Z,22.10
2024-03-12T13:30:33.413Z,23.13
2024-03-12T13:35:11.404Z,20.90
2024-03-12T13:39:53.503Z,23.10
2024-03-12T13:44:32.392Z,21.97
2024-03-12T13:49:27.444Z,23.47
2024-03-12T13:54:05.373Z,26.03
2024-03-12T13:58:48.748Z,31.10
2024-03-12T14:03:28.495Z,37.30
2024-03-12T14:08:06.373Z,34.17
2024-03-12T14:12:38.816Z,30.40
2024-03-12T14:17:13.346Z,33.00
2024-03-12T14:21:51.392Z,33.33
2024-03-12T14:26:29.380Z,26.67
2024-03-12T14:31:07.382Z,24.97
2024-03-12T14:35:48.350Z,23.03
2024-03-12T14:40:27.856Z,24.33
2024-03-12T14:45:05.363Z,24.00
2024-03-12T14:49:44.410Z,24.83
2024-03-12T14:54:25.382Z,23.07
2024-03-12T14:59:03.385Z,25.03
2024-03-12T15:03:42.437Z,25.07
2024-03-12T15:08:22.379Z,25.90
2024-03-12T15:13:03.421Z,23.97
2024-03-12T15:17:41.886Z,26.27
2024-03-12T15:22:20.466Z,26.77
2024-03-12T15:26:59.382Z,27.10
2024-03-12T15:31:41.390Z,26.53
2024-03-12T15:36:20.362Z,27.73
2024-03-12T15:40:58.365Z,26.10
2024-03-12T15:45:37.387Z,26.03
2024-03-12T15:50:19.392Z,27.50
2024-03-12T15:54:58.404Z,27.17
2024-03-12T15:59:37.361Z,26.70
2024-03-12T16:04:15.668Z,28.33
2024-03-12T16:08:58.348Z,26.77
2024-03-12T16:13:37.409Z,26.67
2024-03-12T16:18:15.403Z,27.73
2024-03-12T16:22:53.360Z,28.13
2024-03-12T16:27:35.399Z,28.90
2024-03-12T16:32:26.426Z,27.93
2024-03-12T16:37:04.394Z,29.33
2024-03-12T16:41:42.344Z,29.47
2024-03-12T16:46:24.382Z,29.27
2024-03-12T16:51:02.350Z,28.10
2024-03-12T16:55:41.338Z,28.03
2024-03-12T17:00:21.360Z,29.80
2024-03-12T17:05:04.332Z,28.47
2024-03-12T17:09:44.381Z,29.67
2024-03-12T17:14:30.344Z,28.73
2024-03-12T17:19:14.453Z,27.00
2024-03-12T17:23:55.353Z,27.53
2024-03-12T17:28:35.351Z,29.10
2024-03-12T17:33:15.405Z,27.20
2024-03-12T17:37:56.341Z,31.37
2024-03-12T17:42:37.388Z,35.43
2024-03-12T17:47:19.346Z,32.60
2024-03-12T17:51:59.366Z,32.63
2024-03-12T17:56:40.340Z,31.37
2024-03-12T18:01:23.449Z,32.70
2024-03-12T18:05:58.220Z,31.30
2024-03-12T18:10:35.370Z,32.03
2024-03-12T18:15:13.508Z,31.57
2024-03-12T18:19:55.337Z,28.63
2024-03-12T18:24:33.332Z,30.30
2024-03-12T18:29:11.335Z,31.10
2024-03-12T18:33:49.393Z,32.83
2024-03-12T18:38:32.333Z,32.13
2024-03-12T18:43:11.344Z,32.70
2024-03-12T18:47:50.489Z,34.20
2024-03-12T18:52:23.339Z,33.40
2024-03-12T18:57:04.315Z,32.17
2024-03-12T19:01:43.488Z,29.23
2024-03-12T19:06:27.317Z,34.33
2024-03-12T19:11:06.338Z,33.83
2024-03-12T19:15:44.438Z,32.10
2024-03-12T19:20:26.412Z,34.87
2024-03-12T19:25:04.387Z,31.20
2024-03-12T19:29:42.325Z,32.37
2024-03-12T19:34:25.420Z,32.90
2024-03-12T19:39:05.379Z,35.90
2024-03-12T19:43:38.203Z,33.63
2024-03-12T19:48:10.354Z,32.90
2024-03-12T19:52:54.362Z,33.93
2024-03-12T19:57:32.308Z,33.97
2024-03-12T20:02:12.405Z,33.67
2024-03-12T20:06:50.344Z,31.97
2024-03-12T20:11:32.548Z,34.50
2024-03-12T20:16:10.357Z,33.57
2024-03-12T20:20:50.366Z,32.57
2024-03-12T20:25:29.361Z,36.07
2024-03-12T20:30:11.305Z,35.10
2024-03-12T20:34:50.330Z,33.63
2024-03-12T20:39:32.343Z,36.00
2024-03-12T20:44:10.341Z,36.03
2024-03-12T20:48:52.354Z,34.20
2024-03-12T20:53:30.321Z,31.77
2024-03-12T20:58:08.456Z,35.50
2024-03-12T21:02:46.419Z,33.90
2024-03-12T21:07:27.354Z,37.53
2024-03-12T21:12:05.349Z,34.77
2024-03-12T21:16:43.331Z,35.27
2024-03-12T21:21:23.319Z,35.17
2024-03-12T21:26:04.304Z,36.93
2024-03-12T21:30:44.406Z,35.57
2024-03-12T21:35:23.290Z,36.70
2024-03-12T21:40:01.350Z,35.40
2024-03-12T21:44:44.301Z,35.67
2024-03-12T21:49:23.339Z,33.13
2024-03-12T21:54:06.088Z,35.77
2024-03-12T21:58:46.304Z,34.37
2024-03-12T22:03:27.313Z,33.53
2024-03-12T22:08:05.293Z,31.67
2024-03-12T22:12:43.410Z,35.00
2024-03-12T22:17:16.293Z,32.33
2024-03-12T22:21:58.327Z,31.57
2024-03-12T22:26:37.306Z,31.13
2024-03-12T22:31:16.407Z,30.63
2024-03-12T22:35:54.295Z,31.10
2024-03-12T22:40:35.285Z,29.70
2024-03-12T22:45:14.293Z,32.27
2024-03-12T22:49:53.295Z,29.17
2024-03-12T22:54:32.310Z,31.33
2024-03-12T22:59:14.283Z,30.13
2024-03-12T23:03:54.333Z,29.63
2024-03-12T23:08:36.309Z,30.13
2024-03-12T23:13:14.406Z,27.90
2024-03-12T23:17:56.293Z,30.80
2024-03-12T23:22:35.324Z,30.10
2024-03-12T23:27:13.294Z,30.63
2024-03-12T23:31:51.354Z,28.53
2024-03-12T23:36:35.291Z,27.47
2024-03-12T23:41:13.280Z,28.57
2024-03-12T23:45:51.327Z,28.10
2024-03-12T23:50:29.273Z,29.77
2024-03-12T23:55:11.343Z,28.30
2024-03-12T23:59:52.283Z,25.73
